sensor_id;sensor_type;location;lat;lon;timestamp;P1;durP1;ratioP1;P2;durP2;ratioP2
7833;SDS011;3962;42.696;23.354;2022-12-18T00:01:56;12.70;;;9.17;;
7833;SDS011;3962;42.696;23.354;2022-12-18T00:04:24;11.33;;;8.80;;
7833;SDS011;3962;42.696;23.354;2022-12-18T00:06:52;14.53;;;8.93;;
7833;SDS011;3962;42.696;23.354;2022-12-18T00:09:19;15.10;;;9.97;;
7833;SDS011;3962;42.696;23.354;2022-12-18T00:11:46;15.37;;;9.17;;
7833;SDS011;3962;42.696;23.354;2022-12-18T00:14:15;12.40;;;8.47;;
7833;SDS011;3962;42.696;23.354;2022-12-18T00:16:43;14.63;;;9.90;;
7833;SDS011;3962;42.696;23.354;2022-12-18T00:19:10;15.43;;;9.87;;
7833;SDS011;3962;42.696;23.354;2022-12-18T00:21:37;14.20;;;10.17;;
7833;SDS011;3962;42.696;23.354;2022-12-18T00:24:05;14.87;;;10.07;;
7833;SDS011;3962;42.696;23.354;2022-12-18T00:26:33;13.90;;;8.67;;
7833;SDS011;3962;42.696;23.354;2022-12-18T00:29:02;15.17;;;10.77;;
7833;SDS011;3962;42.696;23.354;2022-12-18T00:31:32;13.57;;;9.57;;
7833;SDS011;3962;42.696;23.354;2022-12-18T00:33:59;14.33;;;9.13;;
7833;SDS011;3962;42.696;23.354;2022-12-18T00:36:27;14.17;;;9.97;;
7833;SDS011;3962;42.696;23.354;2022-12-18T00:38:56;15.00;;;9.33;;
7833;SDS011;3962;42.696;23.354;2022-12-18T00:41:25;16.47;;;9.10;;
7833;SDS011;3962;42.696;23.354;2022-12-18T00:44:10;16.27;;;10.27;;
7833;SDS011;3962;42.696;23.354;2022-12-18T00:46:39;16.33;;;10.07;;
7833;SDS011;3962;42.696;23.354;2022-12-18T00:49:06;14.10;;;9.57;;
7833;SDS011;3962;42.696;23.354;2022-12-18T00:51:33;14.73;;;10.10;;
7833;SDS011;3962;42.696;23.354;2022-12-18T00:54:00;14.40;;;10.33;;
7833;SDS011;3962;42.696;23.354;2022-12-18T00:56:27;15.43;;;10.20;;
7833;SDS011;3962;42.696;23.354;2022-12-18T00:58:54;14.33;;;9.90;;
7833;SDS011;3962;42.696;23.354;2022-12-18T01:01:20;14.13;;;9.10;;
7833;SDS011;3962;42.696;23.354;2022-12-18T01:03:49;12.33;;;8.90;;
7833;SDS011;3962;42.696;23.354;2022-12-18T01:06:16;15.73;;;9.33;;
7833;SDS011;3962;42.696;23.354;2022-12-18T01:08:43;15.73;;;9.13;;
7833;SDS011;3962;42.696;23.354;2022-12-18T01:11:11;14.40;;;10.07;;
7833;SDS011;3962;42.696;23.354;2022-12-18T01:13:39;14.60;;;9.67;;
7833;SDS011;3962;42.696;23.354;2022-12-18T01:16:07;15.50;;;10.17;;
7833;SDS011;3962;42.696;23.354;2022-12-18T01:18:34;14.17;;;9.73;;
7833;SDS011;3962;42.696;23.354;2022-12-18T01:21:02;16.67;;;11.37;;
7833;SDS011;3962;42.696;23.354;2022-12-18T01:23:32;16.90;;;10.73;;
7833;SDS011;3962;42.696;23.354;2022-12-18T01:26:03;15.43;;;10.70;;
7833;SDS011;3962;42.696;23.354;2022-12-18T01:28:31;15.97;;;10.63;;
7833;SDS011;3962;42.696;23.354;2022-12-18T01:30:57;15.93;;;11.40;;
7833;SDS011;3962;42.696;23.354;2022-12-18T01:33:34;17.63;;;10.47;;
7833;SDS011;3962;42.696;23.354;2022-12-18T01:36:03;17.40;;;11.97;;
7833;SDS011;3962;42.696;23.354;2022-12-18T01:38:30;17.90;;;10.80;;
7833;SDS011;3962;42.696;23.354;2022-12-18T01:40:57;17.07;;;10.97;;
7833;SDS011;3962;42.696;23.354;2022-12-18T01:46:12;16.97;;;10.90;;
7833;SDS011;3962;42.696;23.354;2022-12-18T01:48:39;18.00;;;11.10;;
7833;SDS011;3962;42.696;23.354;2022-12-18T01:51:09;17.47;;;11.50;;
7833;SDS011;3962;42.696;23.354;2022-12-18T01:53:37;20.43;;;11.20;;
7833;SDS011;3962;42.696;23.354;2022-12-18T01:56:06;16.13;;;10.57;;
7833;SDS011;3962;42.696;23.354;2022-12-18T01:58:37;19.00;;;11.47;;
7833;SDS011;3962;42.696;23.354;2022-12-18T02:01:10;16.63;;;11.27;;
7833;SDS011;3962;42.696;23.354;2022-12-18T02:03:37;16.33;;;10.33;;
7833;SDS011;3962;42.696;23.354;2022-12-18T02:06:07;14.77;;;10.50;;
7833;SDS011;3962;42.696;23.354;2022-12-18T02:08:43;17.83;;;11.00;;
7833;SDS011;3962;42.696;23.354;2022-12-18T02:11:17;17.37;;;11.73;;
7833;SDS011;3962;42.696;23.354;2022-12-18T02:13:52;15.07;;;10.33;;
7833;SDS011;3962;42.696;23.354;2022-12-18T02:16:35;16.00;;;10.47;;
7833;SDS011;3962;42.696;23.354;2022-12-18T02:19:13;20.20;;;11.60;;
7833;SDS011;3962;42.696;23.354;2022-12-18T02:21:57;14.50;;;10.30;;
7833;SDS011;3962;42.696;23.354;2022-12-18T02:24:35;16.40;;;10.23;;
7833;SDS011;3962;42.696;23.354;2022-12-18T02:27:09;15.53;;;9.70;;
7833;SDS011;3962;42.696;23.354;2022-12-18T02:29:38;15.50;;;9.90;;
7833;SDS011;3962;42.696;23.354;2022-12-18T02:32:09;16.83;;;10.77;;
7833;SDS011;3962;42.696;23.354;2022-12-18T02:34:40;14.03;;;9.67;;
7833;SDS011;3962;42.696;23.354;2022-12-18T02:37:10;13.17;;;9.93;;
7833;SDS011;3962;42.696;23.354;2022-12-18T02:39:40;15.87;;;10.40;;
7833;SDS011;3962;42.696;23.354;2022-12-18T02:42:10;15.57;;;8.93;;
7833;SDS011;3962;42.696;23.354;2022-12-18T02:44:41;17.73;;;10.00;;
7833;SDS011;3962;42.696;23.354;2022-12-18T02:47:09;13.20;;;9.10;;
7833;SDS011;3962;42.696;23.354;2022-12-18T02:49:40;14.67;;;9.97;;
7833;SDS011;3962;42.696;23.354;2022-12-18T02:52:16;15.73;;;9.67;;
7833;SDS011;3962;42.696;23.354;2022-12-18T02:54:51;14.13;;;7.97;;
7833;SDS011;3962;42.696;23.354;2022-12-18T02:57:29;13.73;;;10.07;;
7833;SDS011;3962;42.696;23.354;2022-12-18T03:00:02;14.53;;;9.33;;
7833;SDS011;3962;42.696;23.354;2022-12-18T03:02:34;14.37;;;9.70;;
7833;SDS011;3962;42.696;23.354;2022-12-18T03:05:07;16.70;;;10.60;;
7833;SDS011;3962;42.696;23.354;2022-12-18T03:07:42;15.07;;;10.20;;
7833;SDS011;3962;42.696;23.354;2022-12-18T03:10:25;15.80;;;10.17;;
7833;SDS011;3962;42.696;23.354;2022-12-18T03:12:56;16.47;;;10.87;;
7833;SDS011;3962;42.696;23.354;2022-12-18T03:15:29;16.50;;;10.30;;
7833;SDS011;3962;42.696;23.354;2022-12-18T03:18:02;15.73;;;10.63;;
7833;SDS011;3962;42.696;23.354;2022-12-18T03:20:31;14.37;;;9.63;;
7833;SDS011;3962;42.696;23.354;2022-12-18T03:23:02;15.10;;;9.90;;
7833;SDS011;3962;42.696;23.354;2022-12-18T03:25:33;15.03;;;10.53;;
7833;SDS011;3962;42.696;23.354;2022-12-18T03:28:06;16.13;;;9.27;;
7833;SDS011;3962;42.696;23.354;2022-12-18T03:30:36;17.50;;;11.37;;
7833;SDS011;3962;42.696;23.354;2022-12-18T03:33:07;16.07;;;10.50;;
7833;SDS011;3962;42.696;23.354;2022-12-18T03:35:38;15.17;;;10.17;;
7833;SDS011;3962;42.696;23.354;2022-12-18T03:38:07;16.77;;;10.97;;
7833;SDS011;3962;42.696;23.354;2022-12-18T03:40:38;14.67;;;9.87;;
7833;SDS011;3962;42.696;23.354;2022-12-18T03:43:14;16.60;;;9.37;;
7833;SDS011;3962;42.696;23.354;2022-12-18T03:45:48;16.60;;;10.00;;
7833;SDS011;3962;42.696;23.354;2022-12-18T03:48:19;16.40;;;10.20;;
7833;SDS011;3962;42.696;23.354;2022-12-18T03:50:53;13.53;;;9.47;;
7833;SDS011;3962;42.696;23.354;2022-12-18T03:53:25;19.33;;;10.27;;
7833;SDS011;3962;42.696;23.354;2022-12-18T03:56:00;16.13;;;10.20;;
7833;SDS011;3962;42.696;23.354;2022-12-18T03:58:31;15.00;;;9.03;;
7833;SDS011;3962;42.696;23.354;2022-12-18T04:01:01;15.17;;;10.60;;
7833;SDS011;3962;42.696;23.354;2022-12-18T04:03:31;16.90;;;11.30;;
7833;SDS011;3962;42.696;23.354;2022-12-18T04:05:59;17.50;;;10.60;;
7833;SDS011;3962;42.696;23.354;2022-12-18T04:08:27;17.37;;;10.77;;
7833;SDS011;3962;42.696;23.354;2022-12-18T04:10:54;15.17;;;10.23;;
7833;SDS011;3962;42.696;23.354;2022-12-18T04:13:22;15.07;;;11.00;;
7833;SDS011;3962;42.696;23.354;2022-12-18T04:15:50;16.07;;;10.67;;
7833;SDS011;3962;42.696;23.354;2022-12-18T04:18:18;14.63;;;10.37;;
7833;SDS011;3962;42.696;23.354;2022-12-18T04:20:45;17.87;;;10.93;;
7833;SDS011;3962;42.696;23.354;2022-12-18T04:23:12;20.23;;;11.13;;
7833;SDS011;3962;42.696;23.354;2022-12-18T04:25:39;17.93;;;11.30;;
7833;SDS011;3962;42.696;23.354;2022-12-18T04:28:05;17.77;;;11.13;;
7833;SDS011;3962;42.696;23.354;2022-12-18T04:30:32;17.53;;;11.47;;
7833;SDS011;3962;42.696;23.354;2022-12-18T04:33:00;20.13;;;12.00;;
7833;SDS011;3962;42.696;23.354;2022-12-18T04:35:27;18.93;;;11.17;;
7833;SDS011;3962;42.696;23.354;2022-12-18T04:37:54;18.57;;;11.87;;
7833;SDS011;3962;42.696;23.354;2022-12-18T04:40:21;19.77;;;11.90;;
7833;SDS011;3962;42.696;23.354;2022-12-18T04:42:47;20.37;;;12.33;;
7833;SDS011;3962;42.696;23.354;2022-12-18T04:45:14;18.90;;;12.13;;
7833;SDS011;3962;42.696;23.354;2022-12-18T04:47:41;19.10;;;13.03;;
7833;SDS011;3962;42.696;23.354;2022-12-18T04:50:09;24.67;;;13.60;;
7833;SDS011;3962;42.696;23.354;2022-12-18T04:52:36;20.30;;;12.40;;
7833;SDS011;3962;42.696;23.354;2022-12-18T04:55:03;26.57;;;13.57;;
7833;SDS011;3962;42.696;23.354;2022-12-18T04:57:30;22.37;;;12.70;;
7833;SDS011;3962;42.696;23.354;2022-12-18T04:59:57;20.13;;;12.67;;
7833;SDS011;3962;42.696;23.354;2022-12-18T05:02:24;23.63;;;13.50;;
7833;SDS011;3962;42.696;23.354;2022-12-18T05:04:50;22.27;;;13.93;;
7833;SDS011;3962;42.696;23.354;2022-12-18T05:07:19;26.00;;;14.43;;
7833;SDS011;3962;42.696;23.354;2022-12-18T05:09:45;21.90;;;13.27;;
7833;SDS011;3962;42.696;23.354;2022-12-18T05:12:12;22.47;;;13.60;;
7833;SDS011;3962;42.696;23.354;2022-12-18T05:14:39;24.90;;;12.87;;
7833;SDS011;3962;42.696;23.354;2022-12-18T05:17:06;21.73;;;13.30;;
7833;SDS011;3962;42.696;23.354;2022-12-18T05:19:33;21.60;;;13.53;;
7833;SDS011;3962;42.696;23.354;2022-12-18T05:21:59;25.00;;;13.50;;
7833;SDS011;3962;42.696;23.354;2022-12-18T05:24:28;23.43;;;13.47;;
7833;SDS011;3962;42.696;23.354;2022-12-18T05:26:55;24.07;;;14.60;;
7833;SDS011;3962;42.696;23.354;2022-12-18T05:29:22;27.50;;;15.40;;
7833;SDS011;3962;42.696;23.354;2022-12-18T05:31:48;24.23;;;14.13;;
7833;SDS011;3962;42.696;23.354;2022-12-18T05:34:15;24.40;;;13.57;;
7833;SDS011;3962;42.696;23.354;2022-12-18T05:36:42;25.23;;;14.50;;
7833;SDS011;3962;42.696;23.354;2022-12-18T05:39:09;25.73;;;14.33;;
7833;SDS011;3962;42.696;23.354;2022-12-18T05:41:37;22.63;;;13.77;;
7833;SDS011;3962;42.696;23.354;2022-12-18T05:44:04;27.70;;;13.80;;
7833;SDS011;3962;42.696;23.354;2022-12-18T05:46:31;28.60;;;13.83;;
7833;SDS011;3962;42.696;23.354;2022-12-18T05:48:59;22.73;;;14.00;;
7833;SDS011;3962;42.696;23.354;2022-12-18T05:51:26;22.30;;;13.63;;
7833;SDS011;3962;42.696;23.354;2022-12-18T05:53:53;22.03;;;12.37;;
7833;SDS011;3962;42.696;23.354;2022-12-18T05:56:20;23.20;;;13.77;;
7833;SDS011;3962;42.696;23.354;2022-12-18T05:58:52;27.57;;;13.90;;
7833;SDS011;3962;42.696;23.354;2022-12-18T06:01:20;24.63;;;13.50;;
7833;SDS011;3962;42.696;23.354;2022-12-18T06:03:48;25.90;;;15.17;;
7833;SDS011;3962;42.696;23.354;2022-12-18T06:06:16;26.40;;;14.23;;
7833;SDS011;3962;42.696;23.354;2022-12-18T06:08:43;22.53;;;12.93;;
7833;SDS011;3962;42.696;23.354;2022-12-18T06:11:11;22.67;;;14.37;;
7833;SDS011;3962;42.696;23.354;2022-12-18T06:13:38;29.43;;;15.30;;
7833;SDS011;3962;42.696;23.354;2022-12-18T06:16:06;29.10;;;15.33;;
7833;SDS011;3962;42.696;23.354;2022-12-18T06:18:34;25.00;;;15.50;;
7833;SDS011;3962;42.696;23.354;2022-12-18T06:21:01;24.53;;;14.07;;
7833;SDS011;3962;42.696;23.354;2022-12-18T06:23:28;23.77;;;13.53;;
7833;SDS011;3962;42.696;23.354;2022-12-18T06:25:54;27.47;;;15.63;;
7833;SDS011;3962;42.696;23.354;2022-12-18T06:28:21;24.73;;;14.97;;
7833;SDS011;3962;42.696;23.354;2022-12-18T06:30:48;25.73;;;15.07;;
7833;SDS011;3962;42.696;23.354;2022-12-18T06:33:17;29.20;;;15.83;;
7833;SDS011;3962;42.696;23.354;2022-12-18T06:35:43;22.17;;;13.67;;
7833;SDS011;3962;42.696;23.354;2022-12-18T06:38:10;25.80;;;14.53;;
7833;SDS011;3962;42.696;23.354;2022-12-18T06:40:37;24.97;;;15.07;;
7833;SDS011;3962;42.696;23.354;2022-12-18T06:43:05;27.53;;;14.00;;
7833;SDS011;3962;42.696;23.354;2022-12-18T06:45:33;20.60;;;12.60;;
7833;SDS011;3962;42.696;23.354;2022-12-18T06:48:00;24.23;;;13.63;;
7833;SDS011;3962;42.696;23.354;2022-12-18T06:50:28;24.83;;;13.97;;
7833;SDS011;3962;42.696;23.354;2022-12-18T06:52:55;23.37;;;14.30;;
7833;SDS011;3962;42.696;23.354;2022-12-18T06:55:21;23.13;;;13.77;;
7833;SDS011;3962;42.696;23.354;2022-12-18T06:57:48;23.87;;;14.23;;
7833;SDS011;3962;42.696;23.354;2022-12-18T07:00:15;22.87;;;12.13;;
7833;SDS011;3962;42.696;23.354;2022-12-18T07:02:42;24.77;;;13.03;;
7833;SDS011;3962;42.696;23.354;2022-12-18T07:05:09;24.43;;;13.03;;
7833;SDS011;3962;42.696;23.354;2022-12-18T07:07:37;23.17;;;13.00;;
7833;SDS011;3962;42.696;23.354;2022-12-18T07:10:04;26.60;;;13.83;;
7833;SDS011;3962;42.696;23.354;2022-12-18T07:12:31;22.67;;;12.63;;
7833;SDS011;3962;42.696;23.354;2022-12-18T07:14:58;20.97;;;12.67;;
7833;SDS011;3962;42.696;23.354;2022-12-18T07:17:25;22.23;;;13.03;;
7833;SDS011;3962;42.696;23.354;2022-12-18T07:19:51;23.07;;;14.00;;
7833;SDS011;3962;42.696;23.354;2022-12-18T07:22:18;22.70;;;13.60;;
7833;SDS011;3962;42.696;23.354;2022-12-18T07:24:46;26.63;;;15.33;;
7833;SDS011;3962;42.696;23.354;2022-12-18T07:27:14;26.03;;;14.23;;
7833;SDS011;3962;42.696;23.354;2022-12-18T07:29:40;27.03;;;14.67;;
7833;SDS011;3962;42.696;23.354;2022-12-18T07:32:07;25.53;;;13.57;;
7833;SDS011;3962;42.696;23.354;2022-12-18T07:34:34;27.20;;;15.40;;
7833;SDS011;3962;42.696;23.354;2022-12-18T07:37:01;28.20;;;15.77;;
7833;SDS011;3962;42.696;23.354;2022-12-18T07:39:28;31.67;;;16.50;;
7833;SDS011;3962;42.696;23.354;2022-12-18T07:41:56;27.00;;;15.83;;
7833;SDS011;3962;42.696;23.354;2022-12-18T07:44:37;29.57;;;15.63;;
7833;SDS011;3962;42.696;23.354;2022-12-18T07:47:04;33.07;;;16.47;;
7833;SDS011;3962;42.696;23.354;2022-12-18T07:49:30;35.53;;;17.43;;
7833;SDS011;3962;42.696;23.354;2022-12-18T07:51:57;30.47;;;16.43;;
7833;SDS011;3962;42.696;23.354;2022-12-18T07:54:24;29.70;;;16.90;;
7833;SDS011;3962;42.696;23.354;2022-12-18T07:56:51;30.03;;;16.17;;
7833;SDS011;3962;42.696;23.354;2022-12-18T07:59:19;33.60;;;16.60;;
7833;SDS011;3962;42.696;23.354;2022-12-18T08:01:46;38.10;;;17.23;;
7833;SDS011;3962;42.696;23.354;2022-12-18T08:04:13;29.23;;;16.27;;
7833;SDS011;3962;42.696;23.354;2022-12-18T08:06:40;27.47;;;16.70;;
7833;SDS011;3962;42.696;23.354;2022-12-18T08:09:06;26.80;;;14.90;;
7833;SDS011;3962;42.696;23.354;2022-12-18T08:11:34;25.37;;;15.50;;
7833;SDS011;3962;42.696;23.354;2022-12-18T08:14:00;33.10;;;16.67;;
7833;SDS011;3962;42.696;23.354;2022-12-18T08:16:28;34.37;;;16.80;;
7833;SDS011;3962;42.696;23.354;2022-12-18T08:18:55;33.70;;;17.23;;
7833;SDS011;3962;42.696;23.354;2022-12-18T08:21:22;33.63;;;18.27;;
7833;SDS011;3962;42.696;23.354;2022-12-18T08:23:52;29.57;;;15.97;;
7833;SDS011;3962;42.696;23.354;2022-12-18T08:26:19;31.00;;;16.60;;
7833;SDS011;3962;42.696;23.354;2022-12-18T08:28:47;31.88;;;18.10;;
7833;SDS011;3962;42.696;23.354;2022-12-18T08:31:13;35.60;;;16.93;;
7833;SDS011;3962;42.696;23.354;2022-12-18T08:33:42;34.67;;;17.97;;
7833;SDS011;3962;42.696;23.354;2022-12-18T08:36:09;28.63;;;16.37;;
7833;SDS011;3962;42.696;23.354;2022-12-18T08:38:36;30.47;;;17.37;;
7833;SDS011;3962;42.696;23.354;2022-12-18T08:41:03;28.47;;;16.37;;
7833;SDS011;3962;42.696;23.354;2022-12-18T08:43:31;31.33;;;15.17;;
7833;SDS011;3962;42.696;23.354;2022-12-18T08:46:16;29.00;;;16.13;;
7833;SDS011;3962;42.696;23.354;2022-12-18T08:48:45;28.53;;;15.17;;
7833;SDS011;3962;42.696;23.354;2022-12-18T08:51:12;39.00;;;20.70;;
7833;SDS011;3962;42.696;23.354;2022-12-18T08:53:39;31.27;;;16.33;;
7833;SDS011;3962;42.696;23.354;2022-12-18T08:56:06;30.40;;;16.67;;
7833;SDS011;3962;42.696;23.354;2022-12-18T08:58:34;26.77;;;15.90;;
7833;SDS011;3962;42.696;23.354;2022-12-18T09:01:01;28.87;;;16.17;;
7833;SDS011;3962;42.696;23.354;2022-12-18T09:03:28;31.93;;;20.07;;
7833;SDS011;3962;42.696;23.354;2022-12-18T09:05:56;28.97;;;15.20;;
7833;SDS011;3962;42.696;23.354;2022-12-18T09:08:23;28.40;;;15.70;;
7833;SDS011;3962;42.696;23.354;2022-12-18T09:10:50;28.47;;;16.27;;
7833;SDS011;3962;42.696;23.354;2022-12-18T09:13:17;27.53;;;14.67;;
7833;SDS011;3962;42.696;23.354;2022-12-18T09:15:45;25.47;;;14.33;;
7833;SDS011;3962;42.696;23.354;2022-12-18T09:18:14;29.37;;;14.97;;
7833;SDS011;3962;42.696;23.354;2022-12-18T09:20:42;24.50;;;13.17;;
7833;SDS011;3962;42.696;23.354;2022-12-18T09:23:11;26.80;;;15.27;;
7833;SDS011;3962;42.696;23.354;2022-12-18T09:25:38;27.13;;;14.77;;
7833;SDS011;3962;42.696;23.354;2022-12-18T09:28:06;23.80;;;13.60;;
7833;SDS011;3962;42.696;23.354;2022-12-18T09:30:36;23.23;;;13.80;;
7833;SDS011;3962;42.696;23.354;2022-12-18T09:33:03;22.50;;;13.87;;
7833;SDS011;3962;42.696;23.354;2022-12-18T09:35:30;28.17;;;13.53;;
7833;SDS011;3962;42.696;23.354;2022-12-18T09:37:57;25.13;;;14.10;;
7833;SDS011;3962;42.696;23.354;2022-12-18T09:40:26;26.73;;;13.93;;
7833;SDS011;3962;42.696;23.354;2022-12-18T09:42:59;24.07;;;13.77;;
7833;SDS011;3962;42.696;23.354;2022-12-18T09:45:29;26.47;;;15.07;;
7833;SDS011;3962;42.696;23.354;2022-12-18T09:48:02;25.17;;;13.10;;
7833;SDS011;3962;42.696;23.354;2022-12-18T09:50:31;25.73;;;14.30;;
7833;SDS011;3962;42.696;23.354;2022-12-18T09:53:02;23.67;;;14.67;;
7833;SDS011;3962;42.696;23.354;2022-12-18T09:55:35;24.77;;;13.97;;
7833;SDS011;3962;42.696;23.354;2022-12-18T09:58:06;26.90;;;14.97;;
7833;SDS011;3962;42.696;23.354;2022-12-18T10:00:41;23.57;;;14.10;;
7833;SDS011;3962;42.696;23.354;2022-12-18T10:03:09;25.67;;;15.03;;
7833;SDS011;3962;42.696;23.354;2022-12-18T10:05:41;25.97;;;13.50;;
7833;SDS011;3962;42.696;23.354;2022-12-18T10:08:16;26.33;;;13.87;;
7833;SDS011;3962;42.696;23.354;2022-12-18T10:10:50;23.40;;;12.87;;
7833;SDS011;3962;42.696;23.354;2022-12-18T10:13:21;27.07;;;13.33;;
7833;SDS011;3962;42.696;23.354;2022-12-18T10:16:01;22.20;;;13.43;;
7833;SDS011;3962;42.696;23.354;2022-12-18T10:18:39;23.77;;;13.97;;
7833;SDS011;3962;42.696;23.354;2022-12-18T10:21:24;28.90;;;14.67;;
7833;SDS011;3962;42.696;23.354;2022-12-18T10:23:59;25.30;;;13.87;;
7833;SDS011;3962;42.696;23.354;2022-12-18T10:26:38;25.90;;;14.67;;
7833;SDS011;3962;42.696;23.354;2022-12-18T10:29:08;29.50;;;14.63;;
7833;SDS011;3962;42.696;23.354;2022-12-18T10:31:38;25.20;;;14.40;;
7833;SDS011;3962;42.696;23.354;2022-12-18T10:34:08;28.53;;;14.40;;
7833;SDS011;3962;42.696;23.354;2022-12-18T10:36:35;28.53;;;13.73;;
7833;SDS011;3962;42.696;23.354;2022-12-18T10:39:13;25.93;;;14.17;;
7833;SDS011;3962;42.696;23.354;2022-12-18T10:41:43;24.13;;;13.57;;
7833;SDS011;3962;42.696;23.354;2022-12-18T10:44:10;24.97;;;13.90;;
7833;SDS011;3962;42.696;23.354;2022-12-18T10:46:42;28.83;;;14.57;;
7833;SDS011;3962;42.696;23.354;2022-12-18T10:49:18;29.77;;;15.03;;
7833;SDS011;3962;42.696;23.354;2022-12-18T10:51:47;23.97;;;13.97;;
7833;SDS011;3962;42.696;23.354;2022-12-18T10:54:15;28.53;;;15.07;;
7833;SDS011;3962;42.696;23.354;2022-12-18T10:56:45;29.07;;;15.80;;
7833;SDS011;3962;42.696;23.354;2022-12-18T10:59:13;26.50;;;14.33;;
7833;SDS011;3962;42.696;23.354;2022-12-18T11:01:45;32.03;;;15.50;;
7833;SDS011;3962;42.696;23.354;2022-12-18T11:04:16;24.87;;;15.13;;
7833;SDS011;3962;42.696;23.354;2022-12-18T11:06:52;31.37;;;15.47;;
7833;SDS011;3962;42.696;23.354;2022-12-18T11:09:21;25.87;;;15.30;;
7833;SDS011;3962;42.696;23.354;2022-12-18T11:11:51;24.47;;;15.03;;
7833;SDS011;3962;42.696;23.354;2022-12-18T11:14:20;25.87;;;14.40;;
7833;SDS011;3962;42.696;23.354;2022-12-18T11:16:49;27.37;;;14.53;;
7833;SDS011;3962;42.696;23.354;2022-12-18T11:19:24;29.13;;;13.50;;
7833;SDS011;3962;42.696;23.354;2022-12-18T11:21:59;29.80;;;15.50;;
7833;SDS011;3962;42.696;23.354;2022-12-18T11:24:27;25.20;;;13.93;;
7833;SDS011;3962;42.696;23.354;2022-12-18T11:26:59;27.67;;;13.97;;
7833;SDS011;3962;42.696;23.354;2022-12-18T11:29:32;28.17;;;14.87;;
7833;SDS011;3962;42.696;23.354;2022-12-18T11:32:18;27.63;;;14.20;;
7833;SDS011;3962;42.696;23.354;2022-12-18T11:34:55;28.43;;;14.77;;
7833;SDS011;3962;42.696;23.354;2022-12-18T11:37:27;28.37;;;14.87;;
7833;SDS011;3962;42.696;23.354;2022-12-18T11:39:56;26.97;;;15.30;;
7833;SDS011;3962;42.696;23.354;2022-12-18T11:42:30;29.47;;;15.33;;
7833;SDS011;3962;42.696;23.354;2022-12-18T11:45:03;26.10;;;14.53;;
7833;SDS011;3962;42.696;23.354;2022-12-18T11:47:48;25.23;;;14.13;;
7833;SDS011;3962;42.696;23.354;2022-12-18T11:50:21;28.53;;;15.83;;
7833;SDS011;3962;42.696;23.354;2022-12-18T11:52:51;25.90;;;14.23;;
7833;SDS011;3962;42.696;23.354;2022-12-18T11:55:19;23.60;;;12.70;;
7833;SDS011;3962;42.696;23.354;2022-12-18T11:57:57;25.67;;;13.23;;
7833;SDS011;3962;42.696;23.354;2022-12-18T12:00:30;26.60;;;14.70;;
7833;SDS011;3962;42.696;23.354;2022-12-18T12:03:06;25.10;;;13.77;;
7833;SDS011;3962;42.696;23.354;2022-12-18T12:05:51;27.17;;;13.27;;
7833;SDS011;3962;42.696;23.354;2022-12-18T12:08:33;27.13;;;13.67;;
7833;SDS011;3962;42.696;23.354;2022-12-18T12:11:13;23.17;;;13.17;;
7833;SDS011;3962;42.696;23.354;2022-12-18T12:13:51;25.25;;;15.63;;
7833;SDS011;3962;42.696;23.354;2022-12-18T12:16:25;26.20;;;15.53;;
7833;SDS011;3962;42.696;23.354;2022-12-18T12:19:01;29.20;;;15.50;;
7833;SDS011;3962;42.696;23.354;2022-12-18T12:21:39;29.87;;;15.70;;
7833;SDS011;3962;42.696;23.354;2022-12-18T12:24:20;29.20;;;15.27;;
7833;SDS011;3962;42.696;23.354;2022-12-18T12:26:56;25.30;;;13.83;;
7833;SDS011;3962;42.696;23.354;2022-12-18T12:29:35;25.93;;;14.60;;
7833;SDS011;3962;42.696;23.354;2022-12-18T12:32:17;28.47;;;15.60;;
7833;SDS011;3962;42.696;23.354;2022-12-18T12:34:57;26.43;;;14.13;;
7833;SDS011;3962;42.696;23.354;2022-12-18T12:37:36;28.10;;;14.87;;
7833;SDS011;3962;42.696;23.354;2022-12-18T12:40:11;25.57;;;14.70;;
7833;SDS011;3962;42.696;23.354;2022-12-18T12:42:41;28.73;;;14.57;;
7833;SDS011;3962;42.696;23.354;2022-12-18T12:45:33;24.73;;;14.27;;
7833;SDS011;3962;42.696;23.354;2022-12-18T12:48:04;27.00;;;14.33;;
7833;SDS011;3962;42.696;23.354;2022-12-18T12:50:36;28.40;;;15.57;;
7833;SDS011;3962;42.696;23.354;2022-12-18T12:53:05;26.47;;;14.87;;
7833;SDS011;3962;42.696;23.354;2022-12-18T12:55:35;25.00;;;13.90;;
7833;SDS011;3962;42.696;23.354;2022-12-18T12:58:06;27.70;;;14.53;;
7833;SDS011;3962;42.696;23.354;2022-12-18T13:00:44;27.53;;;14.53;;
7833;SDS011;3962;42.696;23.354;2022-12-18T13:03:19;26.83;;;14.70;;
7833;SDS011;3962;42.696;23.354;2022-12-18T13:05:57;29.30;;;15.33;;
7833;SDS011;3962;42.696;23.354;2022-12-18T13:08:27;28.20;;;15.60;;
7833;SDS011;3962;42.696;23.354;2022-12-18T13:10:55;26.33;;;14.77;;
7833;SDS011;3962;42.696;23.354;2022-12-18T13:13:47;27.80;;;13.57;;
7833;SDS011;3962;42.696;23.354;2022-12-18T13:16:19;26.70;;;14.53;;
7833;SDS011;3962;42.696;23.354;2022-12-18T13:18:50;26.57;;;14.33;;
7833;SDS011;3962;42.696;23.354;2022-12-18T13:21:21;29.10;;;15.30;;
7833;SDS011;3962;42.696;23.354;2022-12-18T13:23:50;25.70;;;13.67;;
7833;SDS011;3962;42.696;23.354;2022-12-18T13:26:30;30.23;;;14.97;;
7833;SDS011;3962;42.696;23.354;2022-12-18T13:28:59;25.73;;;14.83;;
7833;SDS011;3962;42.696;23.354;2022-12-18T13:34:26;22.67;;;14.00;;
7833;SDS011;3962;42.696;23.354;2022-12-18T13:36:56;25.97;;;14.93;;
7833;SDS011;3962;42.696;23.354;2022-12-18T13:39:44;26.73;;;13.97;;
7833;SDS011;3962;42.696;23.354;2022-12-18T13:48:16;26.33;;;14.37;;
7833;SDS011;3962;42.696;23.354;2022-12-18T13:50:48;25.87;;;14.77;;
7833;SDS011;3962;42.696;23.354;2022-12-18T13:53:20;25.80;;;14.50;;
7833;SDS011;3962;42.696;23.354;2022-12-18T13:55:49;25.30;;;14.77;;
7833;SDS011;3962;42.696;23.354;2022-12-18T13:58:16;27.47;;;14.03;;
7833;SDS011;3962;42.696;23.354;2022-12-18T14:00:43;27.97;;;13.77;;
7833;SDS011;3962;42.696;23.354;2022-12-18T14:03:19;27.67;;;14.13;;
7833;SDS011;3962;42.696;23.354;2022-12-18T14:05:52;22.47;;;11.57;;
7833;SDS011;3962;42.696;23.354;2022-12-18T14:08:22;26.60;;;13.63;;
7833;SDS011;3962;42.696;23.354;2022-12-18T14:10:51;23.43;;;13.27;;
7833;SDS011;3962;42.696;23.354;2022-12-18T14:13:23;28.33;;;13.33;;
7833;SDS011;3962;42.696;23.354;2022-12-18T14:15:53;22.37;;;13.13;;
7833;SDS011;3962;42.696;23.354;2022-12-18T14:18:22;25.17;;;14.30;;
7833;SDS011;3962;42.696;23.354;2022-12-18T14:20:52;27.00;;;13.67;;
7833;SDS011;3962;42.696;23.354;2022-12-18T14:26:19;29.43;;;14.00;;
7833;SDS011;3962;42.696;23.354;2022-12-18T14:28:49;24.67;;;13.30;;
7833;SDS011;3962;42.696;23.354;2022-12-18T14:31:20;22.60;;;13.20;;
7833;SDS011;3962;42.696;23.354;2022-12-18T14:33:49;25.17;;;14.13;;
7833;SDS011;3962;42.696;23.354;2022-12-18T14:36:17;28.33;;;14.37;;
7833;SDS011;3962;42.696;23.354;2022-12-18T14:38:47;26.13;;;15.07;;
7833;SDS011;3962;42.696;23.354;2022-12-18T14:41:16;28.63;;;13.73;;
7833;SDS011;3962;42.696;23.354;2022-12-18T14:43:45;26.30;;;14.03;;
7833;SDS011;3962;42.696;23.354;2022-12-18T14:46:30;24.90;;;13.63;;
7833;SDS011;3962;42.696;23.354;2022-12-18T14:49:02;26.70;;;13.53;;
7833;SDS011;3962;42.696;23.354;2022-12-18T14:51:31;22.67;;;13.23;;
7833;SDS011;3962;42.696;23.354;2022-12-18T14:54:00;24.50;;;13.50;;
7833;SDS011;3962;42.696;23.354;2022-12-18T14:56:28;28.07;;;13.13;;
7833;SDS011;3962;42.696;23.354;2022-12-18T14:58:57;22.53;;;12.63;;
7833;SDS011;3962;42.696;23.354;2022-12-18T15:01:27;27.23;;;14.40;;
7833;SDS011;3962;42.696;23.354;2022-12-18T15:03:56;23.00;;;13.50;;
7833;SDS011;3962;42.696;23.354;2022-12-18T15:06:35;22.63;;;13.23;;
7833;SDS011;3962;42.696;23.354;2022-12-18T15:09:05;28.63;;;13.47;;